createdAt,value
2022-08-07T00:01:42.960Z,15.66
2022-08-07T00:03:52.208Z,15.60
2022-08-07T00:06:33.050Z,15.61
2022-08-07T00:09:16.418Z,15.59
2022-08-07T00:11:54.187Z,15.58
2022-08-07T00:14:25.519Z,15.57
2022-08-07T00:16:57.146Z,15.55
2022-08-07T00:19:26.097Z,15.51
2022-08-07T00:22:02.095Z,15.47
2022-08-07T00:24:29.253Z,15.47
2022-08-07T00:27:06.358Z,15.46
2022-08-07T00:29:34.352Z,15.43
2022-08-07T00:32:05.938Z,15.39
2022-08-07T00:34:33.721Z,15.35
2022-08-07T00:37:02.400Z,15.33
2022-08-07T00:39:31.939Z,15.31
2022-08-07T00:42:02.482Z,15.27
2022-08-07T00:44:33.068Z,15.26
2022-08-07T00:47:01.094Z,15.25
2022-08-07T00:50:17.087Z,15.22
2022-08-07T00:52:17.742Z,15.21
2022-08-07T00:54:53.841Z,15.19
2022-08-07T00:57:23.030Z,15.15
2022-08-07T00:59:52.331Z,15.14
2022-08-07T01:02:29.283Z,15.13
2022-08-07T01:04:58.294Z,15.10
2022-08-07T01:07:27.854Z,15.09
2022-08-07T01:10:05.839Z,15.04
2022-08-07T01:12:34.480Z,14.98
2022-08-07T01:15:03.862Z,14.93
2022-08-07T01:17:31.668Z,14.91
2022-08-07T01:20:07.965Z,14.87
2022-08-07T01:22:36.448Z,14.85
2022-08-07T01:25:13.927Z,14.85
2022-08-07T01:27:51.478Z,14.82
2022-08-07T01:30:19.006Z,14.82
2022-08-07T01:32:45.771Z,14.81
2022-08-07T01:35:12.924Z,14.82
2022-08-07T01:37:43.997Z,14.80
2022-08-07T01:40:14.834Z,14.78
2022-08-07T01:42:54.971Z,14.73
2022-08-07T01:45:33.147Z,14.72
2022-08-07T01:48:19.995Z,14.71
2022-08-07T01:50:55.775Z,14.70
2022-08-07T01:54:09.169Z,14.68
2022-08-07T01:56:15.068Z,14.63
2022-08-07T01:58:52.556Z,14.61
2022-08-07T02:01:59.677Z,14.60
2022-08-07T02:04:26.631Z,14.61
2022-08-07T02:06:57.060Z,14.60
2022-08-07T02:09:33.769Z,14.61
2022-08-07T02:12:19.707Z,14.61
2022-08-07T02:15:01.301Z,14.62
2022-08-07T02:17:34.406Z,14.61
2022-08-07T02:20:09.589Z,14.60
2022-08-07T02:22:44.894Z,14.59
2022-08-07T02:25:17.633Z,14.58
2022-08-07T02:27:52.135Z,14.55
2022-08-07T02:30:19.997Z,14.56
2022-08-07T02:33:03.797Z,14.58
2022-08-07T02:36:28.599Z,14.56
2022-08-07T02:38:31.503Z,14.54
2022-08-07T02:40:59.513Z,14.51
2022-08-07T02:43:28.198Z,14.47
2022-08-07T02:46:02.155Z,14.44
2022-08-07T02:48:30.790Z,14.43
2022-08-07T02:51:03.304Z,14.43
2022-08-07T02:53:38.812Z,14.41
2022-08-07T02:56:17.553Z,14.38
2022-08-07T02:58:50.142Z,14.37
2022-08-07T03:01:36.084Z,14.36
2022-08-07T03:04:07.529Z,14.35
2022-08-07T03:06:35.051Z,14.32
2022-08-07T03:09:03.281Z,14.29
2022-08-07T03:11:32.769Z,14.28
2022-08-07T03:14:05.962Z,14.28
2022-08-07T03:16:33.500Z,14.26
2022-08-07T03:19:00.717Z,14.26
2022-08-07T03:21:32.893Z,14.25
2022-08-07T03:24:20.684Z,14.25
2022-08-07T03:26:58.079Z,14.24
2022-08-07T03:29:27.610Z,14.22
2022-08-07T03:31:55.258Z,14.23
2022-08-07T03:34:22.994Z,14.21
2022-08-07T03:36:54.928Z,14.16
2022-08-07T03:40:00.163Z,14.15
2022-08-07T03:42:13.465Z,14.15
2022-08-07T03:44:40.406Z,14.16
2022-08-07T03:47:10.716Z,14.18
2022-08-07T03:49:40.716Z,14.17
2022-08-07T03:52:08.228Z,14.19
2022-08-07T03:54:54.915Z,14.19
2022-08-07T03:58:35.250Z,14.19
2022-08-07T04:00:15.203Z,14.19
2022-08-07T04:02:47.199Z,14.21
2022-08-07T04:05:14.582Z,14.23
2022-08-07T04:07:48.309Z,14.20
2022-08-07T04:10:18.941Z,14.20
2022-08-07T04:12:46.491Z,14.21
2022-08-07T04:15:15.094Z,14.18
2022-08-07T04:18:58.619Z,14.16
2022-08-07T04:20:31.099Z,14.15
2022-08-07T04:23:02.004Z,14.16
2022-08-07T04:25:39.444Z,14.14
2022-08-07T04:28:10.162Z,14.16
2022-08-07T04:30:55.605Z,14.15
2022-08-07T04:33:25.176Z,14.15
2022-08-07T04:35:54.090Z,14.14
2022-08-07T04:38:21.863Z,14.15
2022-08-07T04:40:51.837Z,14.15
2022-08-07T04:43:53.473Z,14.11
2022-08-07T04:46:26.078Z,14.15
2022-08-07T04:49:17.908Z,14.16
2022-08-07T04:51:56.806Z,14.17
2022-08-07T04:54:50.465Z,14.18
2022-08-07T04:58:10.150Z,14.18
2022-08-07T05:00:51.938Z,14.21
2022-08-07T05:04:00.475Z,14.21
2022-08-07T05:06:20.079Z,14.25
2022-08-07T05:09:08.383Z,14.25
2022-08-07T05:11:57.216Z,14.28
2022-08-07T05:14:55.214Z,14.31
2022-08-07T05:17:51.466Z,14.32
2022-08-07T05:20:11.775Z,14.34
2022-08-07T05:22:42.100Z,14.39
2022-08-07T05:25:11.693Z,14.43
2022-08-07T05:28:03.068Z,14.49
2022-08-07T05:30:44.108Z,14.55
2022-08-07T05:33:17.980Z,14.60
2022-08-07T05:35:50.100Z,14.64
2022-08-07T05:39:00.580Z,14.67
2022-08-07T05:41:05.469Z,14.70
2022-08-07T05:44:01.499Z,14.74
2022-08-07T05:46:40.782Z,14.81
2022-08-07T05:49:18.413Z,14.89
2022-08-07T05:52:41.422Z,14.95
2022-08-07T05:55:02.967Z,15.02
2022-08-07T05:57:47.820Z,15.05
2022-08-07T06:00:17.917Z,15.13
2022-08-07T06:02:49.374Z,15.22
2022-08-07T06:05:18.116Z,15.30
2022-08-07T06:08:29.961Z,15.35
2022-08-07T06:10:33.598Z,15.49
2022-08-07T06:13:02.276Z,15.63
2022-08-07T06:15:39.414Z,15.76
2022-08-07T06:18:12.195Z,15.94
2022-08-07T06:20:50.712Z,16.15
2022-08-07T06:24:37.843Z,16.38
2022-08-07T06:26:15.455Z,16.59
2022-08-07T06:28:50.070Z,16.74
2022-08-07T06:31:19.725Z,16.92
2022-08-07T06:33:47.190Z,17.06
2022-08-07T06:36:27.487Z,17.20
2022-08-07T06:40:16.096Z,17.36
2022-08-07T06:42:01.495Z,17.52
2022-08-07T06:44:31.293Z,17.69
2022-08-07T06:47:11.980Z,17.90
2022-08-07T06:49:50.816Z,18.06
2022-08-07T06:52:31.615Z,18.21
2022-08-07T06:56:01.607Z,18.24
2022-08-07T07:06:02.960Z,17.81
2022-08-07T07:08:12.342Z,17.79
2022-08-07T07:21:13.660Z,18.00
2022-08-07T07:24:08.870Z,18.06
2022-08-07T07:26:38.079Z,18.08
2022-08-07T07:29:39.996Z,18.09
2022-08-07T07:32:22.290Z,18.17
2022-08-07T07:38:31.444Z,18.28
2022-08-07T07:41:50.743Z,18.33
2022-08-07T07:54:16.455Z,18.37
2022-08-07T07:57:54.233Z,18.48
2022-08-07T08:00:31.177Z,18.55
2022-08-07T08:03:08.182Z,18.58
2022-08-07T08:05:42.988Z,18.59
2022-08-07T08:08:34.237Z,18.62
2022-08-07T08:20:18.824Z,18.71
2022-08-07T08:29:31.534Z,18.81
2022-08-07T08:43:58.873Z,18.79
2022-08-07T08:47:55.143Z,18.79
2022-08-07T08:57:42.583Z,18.93
2022-08-07T09:03:07.433Z,18.88
2022-08-07T09:05:48.146Z,18.97
2022-08-07T09:08:41.733Z,18.99
2022-08-07T09:14:58.819Z,19.10
2022-08-07T09:33:16.640Z,19.23
2022-08-07T10:22:43.214Z,19.92
2022-08-07T10:30:12.439Z,20.00
2022-08-07T10:39:41.528Z,20.31
2022-08-07T10:42:36.570Z,20.35
2022-08-07T10:45:57.751Z,20.40
2022-08-07T10:49:07.107Z,20.42
2022-08-07T10:52:31.762Z,20.36
2022-08-07T10:55:20.745Z,20.50
2022-08-07T10:58:16.912Z,20.65
2022-08-07T11:01:17.511Z,20.76
2022-08-07T11:04:16.705Z,20.71
2022-08-07T11:07:59.327Z,20.72
2022-08-07T11:14:46.407Z,20.89
2022-08-07T11:16:56.776Z,20.90
2022-08-07T11:25:17.969Z,21.18
2022-08-07T11:28:15.595Z,21.28
2022-08-07T11:30:51.225Z,21.25
2022-08-07T11:33:53.457Z,21.32
2022-08-07T11:36:34.844Z,21.36
2022-08-07T11:39:06.986Z,21.29
2022-08-07T11:42:00.406Z,21.34
2022-08-07T11:44:52.086Z,21.37
2022-08-07T11:47:38.907Z,21.34
2022-08-07T11:50:44.509Z,21.30
2022-08-07T11:54:01.187Z,21.40
2022-08-07T11:56:57.452Z,21.58
2022-08-07T12:00:10.213Z,21.70
2022-08-07T12:02:37.098Z,21.67
2022-08-07T12:05:41.375Z,21.66
2022-08-07T12:08:11.445Z,21.71
2022-08-07T12:11:08.369Z,21.83
2022-08-07T12:14:01.896Z,21.85
2022-08-07T12:16:34.412Z,21.92
2022-08-07T12:19:21.444Z,21.97
2022-08-07T12:22:39.389Z,22.03
2022-08-07T12:26:05.400Z,22.02
2022-08-07T12:31:23.571Z,21.90
2022-08-07T12:34:23.770Z,21.97
2022-08-07T12:36:54.998Z,22.10
2022-08-07T12:39:41.990Z,22.16
2022-08-07T12:42:13.173Z,22.27
2022-08-07T12:44:45.212Z,22.35
2022-08-07T12:47:30.475Z,22.36
2022-08-07T12:50:38.352Z,22.42
2022-08-07T12:53:17.986Z,22.41
2022-08-07T12:56:09.368Z,22.47
2022-08-07T12:58:40.278Z,22.44
2022-08-07T13:01:27.912Z,22.46
2022-08-07T13:04:18.872Z,22.48
2022-08-07T13:07:05.363Z,22.44
2022-08-07T13:10:28.375Z,22.49
2022-08-07T13:13:48.902Z,22.57
2022-08-07T13:16:07.317Z,22.61
2022-08-07T13:18:48.984Z,22.65
2022-08-07T13:21:51.087Z,22.65
2022-08-07T13:24:25.777Z,22.69
2022-08-07T13:27:05.866Z,22.77
2022-08-07T13:29:52.957Z,22.72
2022-08-07T13:32:38.724Z,22.71
2022-08-07T13:35:21.349Z,22.74
2022-08-07T13:38:01.076Z,22.72
2022-08-07T13:40:42.222Z,22.69
2022-08-07T13:43:15.051Z,22.74
2022-08-07T13:46:11.859Z,22.78
2022-08-07T13:48:35.047Z,22.86
2022-08-07T13:51:26.772Z,22.90
2022-08-07T13:54:00.919Z,22.97
2022-08-07T13:56:36.187Z,23.00
2022-08-07T13:59:12.812Z,22.90
2022-08-07T14:02:10.618Z,22.86
2022-08-07T14:04:50.364Z,22.83
2022-08-07T14:07:23.767Z,22.90
2022-08-07T14:10:02.546Z,22.98
2022-08-07T14:13:02.846Z,23.05
2022-08-07T14:15:44.146Z,23.12
2022-08-07T14:18:29.021Z,23.08
2022-08-07T14:21:21.262Z,23.10
2022-08-07T14:24:03.766Z,23.16
2022-08-07T14:26:40.852Z,23.20
2022-08-07T14:30:07.939Z,23.26
2022-08-07T14:32:10.185Z,23.25
2022-08-07T14:34:46.200Z,23.36
2022-08-07T14:37:17.561Z,23.32
2022-08-07T14:40:15.655Z,23.28
2022-08-07T14:43:54.894Z,23.15
2022-08-07T14:45:46.042Z,23.14
2022-08-07T14:48:19.966Z,23.17
2022-08-07T14:50:50.930Z,23.25
2022-08-07T14:54:08.745Z,23.28
2022-08-07T14:56:13.911Z,23.33
2022-08-07T14:58:44.072Z,23.38
2022-08-07T15:01:22.122Z,23.41
2022-08-07T15:03:51.371Z,23.45
2022-08-07T15:06:25.983Z,23.42
2022-08-07T15:08:54.905Z,23.38
2022-08-07T15:11:50.905Z,23.37
2022-08-07T15:14:17.666Z,23.34
2022-08-07T15:16:54.832Z,23.33
2022-08-07T15:20:30.653Z,23.32
2022-08-07T15:25:16.987Z,23.39
2022-08-07T15:28:32.826Z,23.40
2022-08-07T15:30:36.565Z,23.45
2022-08-07T15:33:33.317Z,23.50
2022-08-07T15:36:05.105Z,23.51
2022-08-07T15:38:59.390Z,23.54
2022-08-07T15:44:17.181Z,23.48
2022-08-07T15:46:52.679Z,23.46
2022-08-07T15:52:21.720Z,23.39
2022-08-07T15:55:02.678Z,23.33
2022-08-07T15:57:48.208Z,23.30
2022-08-07T16:00:31.401Z,23.27
2022-08-07T16:03:04.453Z,23.29
2022-08-07T16:05:31.855Z,23.32
2022-08-07T16:08:33.332Z,23.34
2022-08-07T16:11:02.564Z,23.34
2022-08-07T16:13:58.829Z,23.44
2022-08-07T16:16:48.395Z,23.42
2022-08-07T16:19:42.519Z,23.38
2022-08-07T16:22:55.132Z,23.26
2022-08-07T16:25:52.586Z,23.20
2022-08-07T16:30:05.418Z,23.15
2022-08-07T16:31:14.469Z,23.12
2022-08-07T16:34:10.159Z,23.14
2022-08-07T16:37:01.720Z,23.14
2022-08-07T16:39:49.519Z,23.07
2022-08-07T16:42:28.398Z,23.00
2022-08-07T16:46:34.752Z,23.03
2022-08-07T16:48:34.589Z,22.95
2022-08-07T16:51:54.657Z,22.92
2022-08-07T16:54:54.145Z,22.84
2022-08-07T16:58:02.868Z,22.75
2022-08-07T17:00:30.195Z,22.76
2022-08-07T17:03:17.495Z,22.74
2022-08-07T17:06:30.323Z,22.77
2022-08-07T17:16:08.348Z,22.53
2022-08-07T17:20:00.421Z,22.53
2022-08-07T17:27:20.270Z,22.43
2022-08-07T17:34:10.311Z,22.43
2022-08-07T17:36:03.477Z,22.40
2022-08-07T17:38:50.692Z,22.43
2022-08-07T17:42:04.378Z,22.31
2022-08-07T17:47:53.924Z,22.26
2022-08-07T17:54:00.039Z,22.32
2022-08-07T17:56:32.920Z,22.33
2022-08-07T17:59:36.013Z,22.24
2022-08-07T18:02:15.488Z,22.24
2022-08-07T18:08:54.224Z,21.95
2022-08-07T18:21:07.959Z,21.87
2022-08-07T18:25:40.532Z,21.73
2022-08-07T18:28:36.096Z,21.71
2022-08-07T18:31:38.944Z,21.66
2022-08-07T18:34:37.649Z,21.57
2022-08-07T18:38:56.139Z,21.54
2022-08-07T18:40:42.973Z,21.41
2022-08-07T18:43:48.904Z,21.34
2022-08-07T18:46:27.296Z,21.23
2022-08-07T18:50:31.209Z,21.20
2022-08-07T18:52:41.207Z,21.17
2022-08-07T18:55:42.331Z,21.15
2022-08-07T18:58:33.056Z,21.07
2022-08-07T19:02:18.841Z,21.03
2022-08-07T19:04:15.899Z,21.00
2022-08-07T19:06:55.456Z,20.96
2022-08-07T19:09:55.472Z,20.97
2022-08-07T19:12:21.664Z,20.91
2022-08-07T19:14:56.010Z,20.87
2022-08-07T19:18:01.571Z,20.83
2022-08-07T19:20:35.000Z,20.77
2022-08-07T19:23:18.851Z,20.67
2022-08-07T19:26:24.929Z,20.61
2022-08-07T19:30:55.522Z,20.55
2022-08-07T19:32:02.458Z,20.48
2022-08-07T19:34:32.677Z,20.42
2022-08-07T19:37:10.399Z,20.37
2022-08-07T19:39:56.816Z,20.29
2022-08-07T19:42:30.741Z,20.24
2022-08-07T19:45:09.543Z,20.23
2022-08-07T19:47:39.247Z,20.24
2022-08-07T19:50:41.239Z,20.17
2022-08-07T19:52:58.445Z,20.14
2022-08-07T19:55:58.113Z,20.12
2022-08-07T19:58:15.652Z,20.07
2022-08-07T20:00:54.309Z,20.04
2022-08-07T20:03:35.209Z,19.99
2022-08-07T20:06:06.148Z,19.96
2022-08-07T20:08:35.882Z,19.89
2022-08-07T20:11:09.599Z,19.82
2022-08-07T20:13:51.290Z,19.75
2022-08-07T20:16:32.312Z,19.73
2022-08-07T20:19:05.978Z,19.71
2022-08-07T20:21:41.610Z,19.68
2022-08-07T20:24:19.418Z,19.65
2022-08-07T20:26:52.217Z,19.64
2022-08-07T20:29:48.311Z,19.58
2022-08-07T20:32:23.137Z,19.60
2022-08-07T20:34:56.006Z,19.55
2022-08-07T20:37:29.766Z,19.51
2022-08-07T20:40:05.529Z,19.46
2022-08-07T20:42:56.304Z,19.41
2022-08-07T20:45:32.622Z,19.41
2022-08-07T20:48:28.651Z,19.36
2022-08-07T20:50:59.389Z,19.33
2022-08-07T20:54:04.654Z,19.31
2022-08-07T20:56:16.256Z,19.27
2022-08-07T20:58:47.995Z,19.25
2022-08-07T21:01:23.655Z,19.22
2022-08-07T21:04:18.686Z,19.18
2022-08-07T21:06:46.639Z,19.16
2022-08-07T21:09:24.194Z,19.08
2022-08-07T21:11:55.685Z,19.06
2022-08-07T21:14:33.016Z,19.02
2022-08-07T21:18:00.460Z,18.98
2022-08-07T21:20:04.620Z,18.92
2022-08-07T21:22:34.523Z,18.87
2022-08-07T21:25:12.362Z,18.81
2022-08-07T21:28:01.730Z,18.79
2022-08-07T21:30:43.314Z,18.76
2022-08-07T21:33:44.397Z,18.74
2022-08-07T21:36:31.052Z,18.73
2022-08-07T21:39:46.757Z,18.70
2022-08-07T21:42:37.620Z,18.66
2022-08-07T21:46:05.483Z,18.65
2022-08-07T21:48:06.467Z,18.63
2022-08-07T21:50:59.289Z,18.59
2022-08-07T21:53:37.034Z,18.54
2022-08-07T21:56:36.584Z,18.53
2022-08-07T21:59:20.141Z,18.53
2022-08-07T22:02:10.484Z,18.49
2022-08-07T22:04:53.800Z,18.46
2022-08-07T22:07:42.780Z,18.43
2022-08-07T22:10:17.472Z,18.39
2022-08-07T22:12:55.646Z,18.34
2022-08-07T22:16:43.981Z,18.31
2022-08-07T22:18:20.633Z,18.27
2022-08-07T22:21:01.754Z,18.25
2022-08-07T22:23:42.626Z,18.24
2022-08-07T22:26:21.472Z,18.20
2022-08-07T22:29:01.682Z,18.15
2022-08-07T22:31:56.094Z,18.12
2022-08-07T22:34:40.941Z,18.08
2022-08-07T22:38:04.190Z,18.08
2022-08-07T22:40:40.918Z,18.05
2022-08-07T22:43:10.792Z,18.01
2022-08-07T22:46:21.489Z,18.01
2022-08-07T22:49:11.173Z,17.99
2022-08-07T22:51:52.317Z,17.96
2022-08-07T22:54:49.422Z,17.93
2022-08-07T22:57:37.417Z,17.89
2022-08-07T23:00:21.348Z,17.84
2022-08-07T23:03:10.196Z,17.78
2022-08-07T23:06:08.933Z,17.71
2022-08-07T23:08:46.115Z,17.63
2022-08-07T23:11:27.002Z,17.58
2022-08-07T23:14:16.034Z,17.54
2022-08-07T23:16:55.933Z,17.47
2022-08-07T23:19:57.991Z,17.42
2022-08-07T23:22:52.297Z,17.38
2022-08-07T23:25:56.457Z,17.37
2022-08-07T23:28:57.411Z,17.33
2022-08-07T23:32:48.899Z,17.31
2022-08-07T23:34:37.403Z,17.26
2022-08-07T23:38:00.284Z,17.22
2022-08-07T23:40:39.603Z,17.20
2022-08-07T23:43:27.081Z,17.14
2022-08-07T23:46:34.429Z,17.08
2022-08-07T23:49:24.109Z,17.00
2022-08-07T23:53:06.776Z,16.97
2022-08-07T23:55:47.177Z,16.99
2022-08-07T23:58:24.067Z,16.93
